Time;durP1;ratioP1;P1;durP2;ratioP2;P2;SDS_P1;SDS_P2;PMS_P1;PMS_P2;Temp;Humidity;BMP_temperature;BMP_pressure;BME280_temperature;BME280_humidity;BME280_pressure;Samples;Min_cycle;Max_cycle;Signal;HPM_P1;HPM_P2
2023/12/11 00:01:05;;;;;;;1.20;1.20;;;8.70;53.90;;;;;;5044948;28;20442;-65
2023/12/11 00:03:32;;;;;;;1.47;1.40;;;8.70;54.20;;;;;;5054689;28;20665;-65
2023/12/11 00:05:59;;;;;;;1.20;1.20;;;8.70;54.50;;;;;;5029980;28;20262;-64
2023/12/11 00:08:25;;;;;;;1.40;1.30;;;8.70;54.70;;;;;;5048245;28;20719;-66
2023/12/11 00:10:52;;;;;;;1.70;1.60;;;8.80;54.80;;;;;;5054755;28;20834;-66
2023/12/11 00:13:18;;;;;;;1.50;1.40;;;8.80;54.90;;;;;;5046683;28;20642;-65
2023/12/11 00:15:45;;;;;;;2.13;1.60;;;8.80;54.90;;;;;;5039080;28;20226;-66
2023/12/11 00:18:11;;;;;;;1.17;1.17;;;8.90;54.90;;;;;;5044731;28;20205;-65
2023/12/11 00:20:38;;;;;;;1.47;1.37;;;8.80;55.40;;;;;;5053793;28;20206;-64
2023/12/11 00:23:06;;;;;;;1.13;1.13;;;8.80;55.80;;;;;;5047206;28;20210;-65
2023/12/11 00:25:33;;;;;;;1.47;1.40;;;8.90;56.00;;;;;;5043378;28;20232;-65
2023/12/11 00:27:59;;;;;;;1.27;1.27;;;8.90;56.80;;;;;;5045365;28;20210;-65
2023/12/11 00:30:26;;;;;;;1.40;1.40;;;8.90;57.00;;;;;;5040076;28;20202;-64
2023/12/11 00:32:52;;;;;;;1.43;1.33;;;8.80;57.20;;;;;;5046712;28;20746;-63
2023/12/11 00:35:19;;;;;;;1.27;1.27;;;8.90;57.90;;;;;;5044692;28;20265;-66
2023/12/11 00:37:45;;;;;;;1.23;1.23;;;8.90;58.00;;;;;;5048882;28;20626;-65
2023/12/11 00:40:12;;;;;;;1.20;1.20;;;8.90;58.50;;;;;;5052989;28;20213;-65
2023/12/11 00:42:39;;;;;;;1.20;1.20;;;8.90;58.70;;;;;;5049611;28;20206;-65
2023/12/11 00:45:05;;;;;;;1.37;1.30;;;8.90;59.40;;;;;;5048390;28;20226;-65
2023/12/11 00:47:32;;;;;;;1.37;1.30;;;9.00;60.10;;;;;;5046599;28;20684;-65
2023/12/11 00:49:58;;;;;;;1.40;1.30;;;9.00;61.10;;;;;;5052048;28;20206;-65
2023/12/11 00:52:25;;;;;;;1.40;1.20;;;9.00;61.30;;;;;;5053053;28;20206;-66
2023/12/11 00:54:51;;;;;;;1.20;1.20;;;9.00;61.30;;;;;;5051237;28;20215;-65
2023/12/11 00:57:18;;;;;;;1.03;1.00;;;9.10;62.00;;;;;;5044955;28;20284;-65
2023/12/11 00:59:44;;;;;;;1.40;1.40;;;9.10;63.00;;;;;;5039629;28;20204;-65
2023/12/11 01:02:13;;;;;;;1.37;1.30;;;9.00;63.90;;;;;;5054240;28;20213;-65
2023/12/11 01:04:39;;;;;;;1.80;1.30;;;9.00;64.30;;;;;;5044014;28;20219;-65
2023/12/11 01:07:06;;;;;;;1.53;1.40;;;9.00;63.80;;;;;;5043508;28;20218;-64
2023/12/11 01:09:32;;;;;;;1.30;1.30;;;9.10;63.60;;;;;;5047035;28;20205;-65
2023/12/11 01:11:59;;;;;;;1.30;1.30;;;9.10;63.30;;;;;;5046007;28;20302;-65
2023/12/11 01:14:25;;;;;;;1.73;1.40;;;9.10;62.70;;;;;;5046876;28;20658;-66
2023/12/11 01:16:52;;;;;;;1.27;1.27;;;9.10;62.60;;;;;;5049419;28;20209;-65
2023/12/11 01:19:18;;;;;;;2.03;1.40;;;9.10;62.60;;;;;;5052704;28;20209;-65
2023/12/11 01:21:45;;;;;;;1.30;1.30;;;9.10;62.60;;;;;;5043604;28;20206;-64
2023/12/11 01:24:12;;;;;;;1.40;1.40;;;9.10;62.60;;;;;;5043466;28;20240;-65
2023/12/11 01:26:38;;;;;;;1.43;1.40;;;9.10;62.60;;;;;;5050637;28;20306;-65
2023/12/11 01:29:05;;;;;;;1.60;1.40;;;9.10;62.90;;;;;;5051162;28;20209;-65
2023/12/11 01:31:31;;;;;;;1.20;1.20;;;9.10;63.20;;;;;;5043534;28;20218;-65
2023/12/11 01:33:58;;;;;;;1.60;1.50;;;9.10;63.00;;;;;;5042401;28;20273;-65
2023/12/11 01:36:24;;;;;;;1.83;1.40;;;9.10;63.70;;;;;;5047559;28;20226;-65
2023/12/11 01:38:51;;;;;;;1.77;1.30;;;8.90;65.20;;;;;;5051020;28;20197;-65
2023/12/11 01:41:17;;;;;;;1.00;1.00;;;8.80;66.40;;;;;;5042824;28;20673;-65
2023/12/11 01:43:44;;;;;;;1.40;1.30;;;8.80;66.60;;;;;;5046558;28;20204;-63
2023/12/11 01:46:10;;;;;;;1.50;1.50;;;8.80;66.70;;;;;;5051494;28;20275;-65
2023/12/11 01:48:37;;;;;;;1.60;1.50;;;8.70;66.90;;;;;;5045674;28;20557;-65
2023/12/11 01:51:03;;;;;;;1.67;1.40;;;8.80;69.20;;;;;;5042714;28;20256;-65
2023/12/11 01:53:30;;;;;;;1.40;1.30;;;8.60;70.60;;;;;;5046156;28;20210;-65
2023/12/11 01:55:56;;;;;;;1.47;1.40;;;8.60;71.30;;;;;;5042861;28;20289;-64
2023/12/11 01:58:24;;;;;;;1.73;1.50;;;8.50;71.30;;;;;;5039543;28;20269;-65
2023/12/11 02:00:50;;;;;;;1.47;1.20;;;8.60;71.40;;;;;;5045687;28;20574;-65
2023/12/11 02:03:17;;;;;;;1.70;1.43;;;8.50;70.60;;;;;;5050365;28;20267;-63
2023/12/11 02:05:43;;;;;;;1.53;1.43;;;8.60;70.50;;;;;;5042989;28;20653;-66
2023/12/11 02:08:10;;;;;;;4.43;1.60;;;8.50;70.60;;;;;;5043342;28;20260;-65
2023/12/11 02:10:36;;;;;;;1.20;1.20;;;8.50;71.30;;;;;;5054292;28;20618;-65
2023/12/11 02:13:03;;;;;;;1.60;1.50;;;8.50;72.20;;;;;;5053992;28;20205;-65
2023/12/11 02:15:30;;;;;;;1.70;1.60;;;8.40;73.90;;;;;;5040877;28;20226;-66
2023/12/11 02:17:56;;;;;;;1.80;1.40;;;8.40;75.70;;;;;;5041157;28;20212;-65
2023/12/11 02:20:23;;;;;;;1.80;1.70;;;8.30;77.00;;;;;;5050098;28;20692;-65
2023/12/11 02:22:49;;;;;;;2.60;1.60;;;8.30;76.60;;;;;;5042118;28;20210;-65
2023/12/11 02:25:16;;;;;;;2.00;1.73;;;8.30;77.10;;;;;;5042903;28;20922;-64
2023/12/11 02:27:42;;;;;;;1.60;1.50;;;8.20;77.20;;;;;;5043558;28;20243;-66
2023/12/11 02:30:09;;;;;;;1.60;1.50;;;8.30;77.60;;;;;;5045312;28;20568;-65
2023/12/11 02:32:35;;;;;;;7.03;1.60;;;8.20;78.30;;;;;;5042669;28;20256;-65
2023/12/11 02:35:02;;;;;;;1.63;1.53;;;8.10;78.50;;;;;;5043184;28;20222;-62
2023/12/11 02:37:28;;;;;;;1.80;1.70;;;8.20;78.30;;;;;;5049142;28;20263;-64
2023/12/11 02:39:55;;;;;;;1.90;1.73;;;8.20;78.10;;;;;;5042584;28;20264;-65
2023/12/11 02:42:21;;;;;;;1.60;1.50;;;8.20;77.90;;;;;;5050085;28;20198;-65
2023/12/11 02:44:48;;;;;;;1.83;1.60;;;8.10;78.20;;;;;;5041407;28;20731;-65
2023/12/11 02:47:14;;;;;;;2.00;1.40;;;8.20;78.50;;;;;;5047168;28;20247;-65
2023/12/11 02:49:41;;;;;;;2.07;1.60;;;8.20;78.80;;;;;;5046086;28;20677;-66
2023/12/11 02:52:07;;;;;;;1.70;1.60;;;8.10;79.00;;;;;;5046484;28;20205;-65
2023/12/11 02:54:34;;;;;;;2.17;1.97;;;8.20;78.90;;;;;;5052927;28;20672;-66
2023/12/11 02:57:00;;;;;;;1.83;1.50;;;8.20;78.80;;;;;;5037889;28;20267;-65
2023/12/11 02:59:27;;;;;;;1.60;1.50;;;8.10;79.40;;;;;;5040261;28;20727;-65
2023/12/11 03:01:53;;;;;;;1.50;1.40;;;8.10;80.00;;;;;;5045285;28;20236;-64
2023/12/11 03:04:20;;;;;;;2.00;1.60;;;8.00;81.30;;;;;;5043786;28;20756;-65
2023/12/11 03:06:46;;;;;;;1.80;1.47;;;8.00;81.80;;;;;;5042257;28;20233;-65
2023/12/11 03:09:13;;;;;;;1.50;1.40;;;7.90;82.40;;;;;;5041486;28;20210;-65
2023/12/11 03:11:39;;;;;;;1.50;1.50;;;7.90;83.00;;;;;;5052742;28;20202;-64
2023/12/11 03:14:06;;;;;;;1.50;1.40;;;8.00;82.70;;;;;;5040513;28;20655;-64
2023/12/11 03:16:32;;;;;;;1.97;1.83;;;8.00;82.80;;;;;;5049273;28;20221;-64
2023/12/11 03:18:59;;;;;;;2.07;1.87;;;8.00;82.40;;;;;;5045179;28;20215;-65
2023/12/11 03:21:25;;;;;;;2.07;1.80;;;8.00;82.30;;;;;;5043620;28;20248;-65
2023/12/11 03:23:52;;;;;;;2.00;1.87;;;7.90;82.40;;;;;;5041112;28;20707;-65
2023/12/11 03:26:18;;;;;;;2.07;1.83;;;7.90;82.60;;;;;;5054658;28;20298;-64
2023/12/11 03:28:45;;;;;;;2.33;1.70;;;8.00;82.50;;;;;;5054011;28;20202;-65
2023/12/11 03:31:12;;;;;;;1.80;1.70;;;8.00;82.40;;;;;;5046697;28;20272;-65
2023/12/11 03:33:38;;;;;;;1.67;1.57;;;8.00;82.00;;;;;;5045089;28;20202;-64
2023/12/11 03:36:05;;;;;;;2.13;1.93;;;7.90;82.20;;;;;;5045131;28;20280;-64
2023/12/11 03:38:31;;;;;;;1.70;1.60;;;8.00;81.80;;;;;;5048149;28;20267;-64
2023/12/11 03:40:58;;;;;;;1.67;1.57;;;8.00;81.40;;;;;;5048070;28;20290;-65
2023/12/11 03:43:24;;;;;;;1.90;1.80;;;8.00;81.50;;;;;;5055820;28;20205;-64
2023/12/11 03:45:51;;;;;;;3.13;2.23;;;8.10;81.40;;;;;;5051364;28;20237;-65
2023/12/11 03:48:17;;;;;;;1.93;1.60;;;8.10;80.80;;;;;;5050093;28;20197;-64
2023/12/11 03:50:44;;;;;;;2.00;1.60;;;8.00;80.70;;;;;;5038430;28;20637;-64
2023/12/11 03:53:10;;;;;;;2.07;1.80;;;8.00;81.40;;;;;;5054141;28;20259;-64
2023/12/11 03:55:37;;;;;;;1.87;1.57;;;8.10;81.20;;;;;;5044390;28;20305;-64
2023/12/11 03:58:03;;;;;;;1.80;1.70;;;8.00;81.50;;;;;;5047524;28;20214;-65
2023/12/11 04:00:30;;;;;;;1.60;1.50;;;8.10;81.50;;;;;;5046838;28;20224;-64
2023/12/11 04:02:56;;;;;;;1.97;1.50;;;8.10;81.40;;;;;;5053020;28;20218;-65
2023/12/11 04:05:23;;;;;;;1.80;1.70;;;8.10;81.00;;;;;;5049509;28;20238;-65
2023/12/11 04:07:50;;;;;;;1.93;1.70;;;8.10;81.20;;;;;;5054073;28;20206;-64
2023/12/11 04:10:17;;;;;;;4.10;1.80;;;8.10;81.30;;;;;;5051064;28;20661;-65
2023/12/11 04:12:44;;;;;;;1.83;1.57;;;8.00;81.80;;;;;;5050426;28;20205;-66
2023/12/11 04:15:11;;;;;;;2.20;1.60;;;8.00;82.50;;;;;;5047478;28;20272;-65
2023/12/11 04:17:37;;;;;;;3.37;1.90;;;8.00;82.50;;;;;;5058240;28;20232;-65
2023/12/11 04:20:04;;;;;;;2.10;1.73;;;8.00;82.80;;;;;;5047733;28;20735;-66
2023/12/11 04:22:30;;;;;;;1.80;1.70;;;8.00;82.80;;;;;;5049936;28;20259;-65
2023/12/11 04:24:57;;;;;;;1.70;1.60;;;8.00;83.10;;;;;;5044734;28;20226;-65
2023/12/11 04:27:23;;;;;;;1.73;1.63;;;8.00;82.80;;;;;;5050810;28;20245;-64
2023/12/11 04:29:50;;;;;;;1.43;1.33;;;8.10;83.00;;;;;;5049580;28;20210;-64
2023/12/11 04:32:17;;;;;;;1.70;1.60;;;8.10;82.70;;;;;;5047895;28;20596;-66
2023/12/11 04:34:44;;;;;;;1.83;1.63;;;8.10;82.70;;;;;;5048627;28;20214;-65
2023/12/11 04:37:10;;;;;;;1.80;1.70;;;8.10;82.60;;;;;;5049694;28;20207;-64
2023/12/11 04:39:37;;;;;;;1.70;1.60;;;8.10;83.00;;;;;;5048524;28;20229;-66
2023/12/11 04:42:03;;;;;;;2.37;1.70;;;8.10;82.80;;;;;;5042762;28;20248;-65
2023/12/11 04:44:30;;;;;;;1.60;1.50;;;8.10;82.80;;;;;;5048551;28;20686;-65
2023/12/11 04:46:56;;;;;;;2.50;1.70;;;8.10;82.90;;;;;;5042164;28;20222;-64
2023/12/11 04:49:23;;;;;;;1.60;1.43;;;8.20;83.20;;;;;;5048290;28;20210;-64
2023/12/11 04:51:49;;;;;;;1.70;1.60;;;8.20;83.40;;;;;;5048649;28;20213;-65
2023/12/11 04:54:16;;;;;;;1.50;1.50;;;8.20;83.80;;;;;;5047705;28;20574;-65
2023/12/11 04:56:42;;;;;;;2.00;1.67;;;8.20;84.20;;;;;;5042502;28;20276;-64
2023/12/11 04:59:09;;;;;;;1.70;1.60;;;8.20;84.20;;;;;;5047150;28;20632;-64
2023/12/11 05:01:35;;;;;;;2.40;1.80;;;8.20;84.20;;;;;;5040040;28;20255;-64
2023/12/11 05:04:02;;;;;;;1.90;1.80;;;8.20;84.20;;;;;;5048432;28;20838;-65
2023/12/11 05:06:28;;;;;;;1.73;1.60;;;8.10;84.60;;;;;;5045323;28;20290;-64
2023/12/11 05:08:55;;;;;;;1.70;1.60;;;8.10;84.10;;;;;;5049472;28;20275;-64
2023/12/11 05:11:22;;;;;;;1.97;1.87;;;8.00;85.30;;;;;;5046075;28;20256;-65
2023/12/11 05:13:48;;;;;;;2.90;1.80;;;7.90;85.90;;;;;;5050433;28;20210;-64
2023/12/11 05:16:15;;;;;;;1.73;1.63;;;7.90;86.10;;;;;;5046646;28;20252;-65
2023/12/11 05:18:41;;;;;;;1.67;1.57;;;7.90;86.30;;;;;;5048544;28;20259;-65
2023/12/11 05:21:08;;;;;;;3.20;1.80;;;7.90;85.90;;;;;;5044042;28;20207;-64
2023/12/11 05:23:34;;;;;;;2.70;1.80;;;7.90;86.00;;;;;;5048108;28;20213;-65
2023/12/11 05:26:01;;;;;;;2.03;1.90;;;7.80;86.10;;;;;;5047224;28;20233;-64
2023/12/11 05:28:27;;;;;;;1.90;1.80;;;7.80;85.90;;;;;;5047589;28;20213;-65
2023/12/11 05:30:54;;;;;;;1.90;1.80;;;7.80;87.00;;;;;;5046704;28;20205;-65
2023/12/11 05:33:20;;;;;;;2.00;1.90;;;7.70;86.70;;;;;;5043830;28;20194;-65
2023/12/11 05:35:47;;;;;;;2.00;1.90;;;7.80;86.50;;;;;;5042575;28;20240;-64
2023/12/11 05:38:12;;;;;;;2.63;2.10;;;7.80;86.00;;;;;;5044030;28;20253;-64
2023/12/11 05:40:39;;;;;;;1.80;1.70;;;7.80;86.10;;;;;;5046436;28;20202;-65
2023/12/11 05:43:06;;;;;;;2.00;1.60;;;7.80;85.40;;;;;;5051993;28;20209;-65
2023/12/11 05:45:32;;;;;;;1.90;1.80;;;7.70;85.70;;;;;;5045791;28;20286;-65
2023/12/11 05:47:59;;;;;;;2.00;1.90;;;7.80;85.40;;;;;;5050684;28;20580;-64
2023/12/11 05:50:25;;;;;;;2.30;2.10;;;7.80;85.20;;;;;;5047930;28;20267;-64
2023/12/11 05:52:52;;;;;;;1.90;1.80;;;7.80;85.00;;;;;;5039429;28;20205;-63
2023/12/11 05:55:18;;;;;;;2.40;1.90;;;7.80;84.70;;;;;;5048878;28;20232;-65
2023/12/11 05:57:45;;;;;;;2.00;1.80;;;7.80;84.60;;;;;;5047040;28;20289;-65
2023/12/11 06:00:12;;;;;;;2.30;1.90;;;7.80;84.80;;;;;;5049436;28;20212;-64
2023/12/11 06:02:39;;;;;;;2.30;1.60;;;7.80;84.50;;;;;;5047725;28;20236;-65
2023/12/11 06:05:06;;;;;;;2.10;2.00;;;7.80;83.90;;;;;;5041204;28;20240;-64
2023/12/11 06:07:32;;;;;;;2.00;1.80;;;7.80;83.90;;;;;;5047434;28;20282;-65
2023/12/11 06:09:59;;;;;;;2.00;1.90;;;7.80;83.90;;;;;;5040041;28;20209;-65
2023/12/11 06:12:25;;;;;;;1.80;1.70;;;7.80;84.30;;;;;;5044313;28;20210;-65
2023/12/11 06:14:52;;;;;;;2.03;1.90;;;7.80;83.90;;;;;;5041548;28;20230;-66
2023/12/11 06:17:19;;;;;;;2.20;2.00;;;7.90;83.80;;;;;;5046297;28;20303;-65
2023/12/11 06:19:46;;;;;;;1.93;1.83;;;7.90;83.50;;;;;;5049140;28;20213;-64
2023/12/11 06:22:12;;;;;;;1.70;1.60;;;7.90;83.30;;;;;;5047199;28;20752;-65
2023/12/11 06:24:39;;;;;;;2.10;1.90;;;7.90;83.90;;;;;;5043020;28;20647;-65
2023/12/11 06:27:05;;;;;;;1.90;1.80;;;8.00;83.60;;;;;;5043026;28;20245;-64
2023/12/11 06:29:32;;;;;;;1.97;1.60;;;8.00;83.30;;;;;;5047193;28;20213;-65
2023/12/11 06:31:58;;;;;;;2.00;1.90;;;8.00;83.00;;;;;;5042093;28;20210;-64
2023/12/11 06:34:25;;;;;;;2.37;1.70;;;8.10;83.00;;;;;;5047137;28;20217;-65
2023/12/11 06:36:51;;;;;;;1.93;1.50;;;8.20;82.80;;;;;;5046623;28;20248;-64
2023/12/11 06:39:19;;;;;;;1.83;1.73;;;8.20;83.10;;;;;;5047262;28;20263;-64
2023/12/11 06:41:46;;;;;;;1.90;1.80;;;8.20;82.50;;;;;;5046398;28;20206;-65
2023/12/11 06:44:12;;;;;;;1.70;1.60;;;8.20;82.80;;;;;;5045001;28;20206;-65
2023/12/11 06:46:39;;;;;;;1.93;1.83;;;8.30;82.40;;;;;;5028546;28;20779;-65
2023/12/11 06:49:05;;;;;;;1.93;1.83;;;8.20;82.60;;;;;;5044212;28;20260;-64
2023/12/11 06:51:32;;;;;;;1.80;1.70;;;8.30;82.90;;;;;;5048800;28;20209;-65
2023/12/11 06:53:59;;;;;;;1.80;1.70;;;8.30;82.40;;;;;;5046515;28;20239;-64
2023/12/11 06:56:25;;;;;;;2.00;1.90;;;8.30;82.40;;;;;;5045787;28;20704;-65
2023/12/11 06:58:52;;;;;;;2.27;1.80;;;8.30;82.50;;;;;;5045417;28;20209;-63
2023/12/11 07:01:18;;;;;;;2.67;1.50;;;8.40;82.20;;;;;;5051787;28;20206;-64
2023/12/11 07:03:48;;;;;;;2.10;2.00;;;8.40;81.60;;;;;;5045231;28;20210;-65
2023/12/11 07:06:14;;;;;;;2.07;1.80;;;8.40;81.50;;;;;;5045918;28;20233;-66
2023/12/11 07:08:41;;;;;;;2.13;2.00;;;8.40;81.90;;;;;;5054851;28;20225;-65
2023/12/11 07:11:07;;;;;;;1.90;1.80;;;8.40;82.30;;;;;;5052805;28;20248;-64
2023/12/11 07:13:34;;;;;;;1.83;1.73;;;8.40;82.70;;;;;;5052454;28;20202;-64
2023/12/11 07:16:00;;;;;;;2.67;2.00;;;8.50;82.60;;;;;;5051753;28;20291;-64
2023/12/11 07:18:27;;;;;;;2.03;1.93;;;8.60;82.10;;;;;;5050235;28;20216;-65
2023/12/11 07:20:53;;;;;;;1.73;1.63;;;8.50;82.00;;;;;;5043008;28;20266;-65
2023/12/11 07:23:20;;;;;;;1.90;1.80;;;8.60;81.80;;;;;;5045099;28;20210;-64
2023/12/11 07:25:47;;;;;;;2.30;2.10;;;8.60;81.60;;;;;;5054248;28;20287;-64
2023/12/11 07:28:13;;;;;;;1.90;1.80;;;8.70;81.60;;;;;;5053563;28;20774;-65
2023/12/11 07:30:40;;;;;;;2.20;1.60;;;8.70;81.00;;;;;;5045650;28;20266;-63
2023/12/11 07:33:06;;;;;;;1.97;1.77;;;8.70;80.90;;;;;;5054428;28;20218;-64
2023/12/11 07:35:33;;;;;;;2.67;1.70;;;8.80;80.80;;;;;;5054009;28;20641;-63
2023/12/11 07:37:59;;;;;;;1.77;1.67;;;8.90;80.20;;;;;;5037391;28;20198;-65
2023/12/11 07:40:26;;;;;;;2.00;1.60;;;8.90;80.40;;;;;;5045843;28;20206;-64
2023/12/11 07:42:53;;;;;;;1.80;1.70;;;8.90;80.50;;;;;;5049416;28;20267;-64
2023/12/11 07:45:19;;;;;;;1.70;1.60;;;9.00;80.60;;;;;;5049267;28;20222;-61
2023/12/11 07:47:46;;;;;;;1.90;1.80;;;9.10;81.40;;;;;;5043793;28;20241;-64
2023/12/11 07:50:12;;;;;;;2.63;1.87;;;9.20;80.10;;;;;;5041647;28;20755;-63
2023/12/11 07:52:39;;;;;;;1.80;1.70;;;9.20;80.40;;;;;;5046179;28;20213;-64
2023/12/11 07:55:07;;;;;;;1.70;1.60;;;9.20;80.70;;;;;;5039597;28;20222;-64
2023/12/11 07:57:34;;;;;;;1.80;1.70;;;9.20;81.00;;;;;;5040393;28;20205;-63
2023/12/11 08:00:00;;;;;;;1.80;1.70;;;9.20;82.70;;;;;;5048594;28;20209;-64
2023/12/11 08:02:27;;;;;;;1.70;1.60;;;9.30;82.20;;;;;;5042102;28;20209;-64
2023/12/11 08:04:53;;;;;;;1.87;1.77;;;9.30;81.80;;;;;;5045968;28;20222;-65
2023/12/11 08:07:20;;;;;;;1.63;1.53;;;9.30;81.30;;;;;;5047475;28;20286;-64
2023/12/11 08:09:47;;;;;;;1.50;1.40;;;9.30;81.60;;;;;;5049625;28;20696;-64
2023/12/11 08:12:14;;;;;;;1.90;1.77;;;9.30;81.30;;;;;;5051036;28;20198;-64
2023/12/11 08:14:41;;;;;;;1.90;1.80;;;9.30;81.40;;;;;;5048130;28;20211;-64
2023/12/11 08:17:07;;;;;;;4.30;1.90;;;9.30;81.30;;;;;;5057733;28;20195;-65
2023/12/11 08:19:34;;;;;;;1.70;1.60;;;9.40;80.90;;;;;;5053660;28;20211;-65
2023/12/11 08:22:00;;;;;;;1.70;1.60;;;9.40;81.00;;;;;;5045993;28;20294;-64
2023/12/11 08:24:27;;;;;;;1.93;1.83;;;9.30;81.30;;;;;;5045383;28;20211;-63
2023/12/11 08:26:53;;;;;;;1.83;1.73;;;9.40;80.90;;;;;;5053965;28;20222;-64
2023/12/11 08:29:21;;;;;;;2.43;1.50;;;9.40;81.00;;;;;;5050328;28;20223;-65
2023/12/11 08:31:47;;;;;;;1.63;1.53;;;9.30;80.80;;;;;;5047348;28;20682;-65
2023/12/11 08:34:14;;;;;;;1.53;1.40;;;9.40;80.90;;;;;;5048391;28;20208;-64
2023/12/11 08:36:41;;;;;;;1.53;1.43;;;9.40;81.00;;;;;;5052465;28;20219;-65
2023/12/11 08:39:09;;;;;;;1.60;1.50;;;9.50;80.70;;;;;;5033471;28;20208;-63
2023/12/11 08:41:36;;;;;;;4.63;1.60;;;9.50;79.50;;;;;;5052841;28;20230;-65
2023/12/11 08:44:03;;;;;;;1.83;1.73;;;9.60;79.60;;;;;;5051150;28;20209;-65
2023/12/11 08:46:31;;;;;;;1.50;1.40;;;9.60;79.80;;;;;;5043750;28;20226;-65
2023/12/11 08:48:58;;;;;;;1.77;1.60;;;9.60;79.40;;;;;;5057547;28;20203;-65
2023/12/11 08:51:25;;;;;;;2.03;1.90;;;9.60;78.40;;;;;;5050871;28;20302;-65
2023/12/11 08:53:51;;;;;;;1.80;1.70;;;9.60;78.60;;;;;;5044241;28;20210;-69
2023/12/11 08:56:18;;;;;;;2.10;1.90;;;9.70;78.60;;;;;;5044504;28;20703;-65
2023/12/11 08:58:46;;;;;;;2.23;1.90;;;9.70;78.20;;;;;;5040189;28;20212;-66
2023/12/11 09:01:12;;;;;;;1.70;1.60;;;9.70;78.00;;;;;;5043613;28;20290;-65
2023/12/11 09:03:39;;;;;;;1.57;1.40;;;9.70;77.70;;;;;;5046455;28;20204;-66
2023/12/11 09:06:05;;;;;;;1.87;1.77;;;9.70;77.90;;;;;;5040588;28;20236;-65
2023/12/11 09:08:32;;;;;;;1.60;1.50;;;9.70;77.70;;;;;;5051815;28;20285;-66
2023/12/11 09:10:58;;;;;;;1.63;1.50;;;9.60;77.80;;;;;;5048223;28;20212;-65
2023/12/11 09:13:26;;;;;;;1.77;1.67;;;9.60;77.90;;;;;;5034199;28;20674;-64
2023/12/11 09:15:52;;;;;;;1.83;1.70;;;9.60;77.80;;;;;;5045220;28;20667;-63
2023/12/11 09:18:19;;;;;;;1.63;1.40;;;9.70;77.70;;;;;;5049162;28;20228;-64
2023/12/11 09:20:45;;;;;;;2.53;1.70;;;9.70;77.20;;;;;;5047869;28;20285;-65
2023/12/11 09:23:12;;;;;;;1.77;1.47;;;9.70;76.80;;;;;;5044370;28;20720;-64
2023/12/11 09:25:38;;;;;;;1.60;1.50;;;9.80;76.90;;;;;;5015264;28;20226;-62
2023/12/11 09:28:05;;;;;;;1.70;1.60;;;9.80;76.90;;;;;;5048876;28;20583;-64
2023/12/11 09:30:32;;;;;;;1.37;1.27;;;9.80;76.90;;;;;;5039494;28;20687;-64
2023/12/11 09:32:58;;;;;;;1.70;1.60;;;9.80;76.60;;;;;;5047348;28;20220;-65
2023/12/11 09:35:25;;;;;;;2.43;1.30;;;9.90;76.00;;;;;;5051198;28;20239;-64
2023/12/11 09:37:51;;;;;;;1.70;1.60;;;9.90;75.80;;;;;;5048271;28;20245;-65
2023/12/11 09:40:18;;;;;;;1.57;1.47;;;10.00;75.10;;;;;;5041267;28;20219;-64
2023/12/11 09:42:45;;;;;;;1.60;1.50;;;10.00;74.20;;;;;;5046381;28;20207;-64
2023/12/11 09:45:13;;;;;;;1.60;1.50;;;10.00;73.70;;;;;;5042371;28;20282;-65
2023/12/11 09:47:39;;;;;;;2.67;1.30;;;10.00;73.30;;;;;;5052605;28;20316;-63
2023/12/11 09:50:06;;;;;;;1.50;1.40;;;10.00;73.10;;;;;;5043078;28;20216;-65
2023/12/11 09:52:33;;;;;;;2.23;1.37;;;10.00;72.90;;;;;;5053933;28;20216;-65
2023/12/11 09:54:59;;;;;;;3.67;1.50;;;10.10;72.50;;;;;;5047173;28;20598;-65
2023/12/11 09:57:26;;;;;;;1.97;1.60;;;10.10;72.20;;;;;;5043431;28;20209;-64
2023/12/11 09:59:52;;;;;;;1.70;1.60;;;10.10;72.10;;;;;;5042594;28;20209;-64
2023/12/11 10:02:19;;;;;;;3.20;1.80;;;10.10;71.80;;;;;;5054494;28;20200;-63
2023/12/11 10:04:45;;;;;;;1.77;1.57;;;10.20;71.70;;;;;;5050356;28;20289;-64
2023/12/11 10:07:12;;;;;;;2.80;2.00;;;10.30;71.10;;;;;;5055727;28;20236;-65
2023/12/11 10:09:38;;;;;;;1.83;1.70;;;10.40;70.70;;;;;;5051137;28;20242;-64
2023/12/11 10:12:06;;;;;;;1.97;1.87;;;10.40;70.50;;;;;;5047711;28;20212;-64
2023/12/11 10:14:33;;;;;;;2.13;1.70;;;10.30;70.10;;;;;;5054576;28;20636;-65
2023/12/11 10:16:59;;;;;;;2.37;1.83;;;10.30;70.80;;;;;;5045870;28;20583;-67
2023/12/11 10:19:26;;;;;;;2.40;1.60;;;10.30;70.40;;;;;;5042738;28;20677;-65
2023/12/11 10:21:52;;;;;;;2.40;1.70;;;10.20;70.60;;;;;;5033980;28;20235;-64
2023/12/11 10:24:19;;;;;;;2.03;1.93;;;10.30;70.00;;;;;;5030890;28;20208;-64
2023/12/11 10:26:45;;;;;;;1.57;1.47;;;10.20;69.90;;;;;;5028483;28;20272;-64
2023/12/11 10:29:12;;;;;;;2.00;1.70;;;10.20;70.20;;;;;;5025385;28;20230;-64
2023/12/11 10:31:39;;;;;;;1.90;1.70;;;10.20;70.10;;;;;;5027353;28;20204;-65
2023/12/11 10:34:05;;;;;;;1.90;1.70;;;10.20;69.80;;;;;;5028395;28;20212;-68
2023/12/11 10:36:32;;;;;;;1.90;1.67;;;10.20;70.00;;;;;;5027658;28;20220;-64
2023/12/11 10:38:58;;;;;;;1.40;1.30;;;10.30;70.20;;;;;;5022820;28;20208;-64
2023/12/11 10:41:25;;;;;;;4.73;2.00;;;10.30;69.90;;;;;;5028621;28;20739;-64
2023/12/11 10:43:51;;;;;;;1.90;1.70;;;10.30;70.10;;;;;;5034826;28;20303;-64
2023/12/11 10:46:18;;;;;;;1.70;1.60;;;10.30;70.40;;;;;;5027035;28;20232;-64
2023/12/11 10:48:44;;;;;;;1.60;1.50;;;10.30;70.50;;;;;;5023152;28;20723;-65
2023/12/11 10:51:11;;;;;;;1.70;1.60;;;10.20;71.20;;;;;;5025579;28;20299;-64
2023/12/11 10:53:37;;;;;;;1.70;1.60;;;10.20;71.70;;;;;;5020471;28;20202;-64
2023/12/11 10:56:04;;;;;;;1.50;1.40;;;10.20;72.00;;;;;;5025105;28;20236;-65
2023/12/11 10:58:30;;;;;;;1.70;1.60;;;10.10;72.10;;;;;;5031258;28;20301;-64
2023/12/11 11:00:57;;;;;;;1.53;1.43;;;10.10;72.40;;;;;;5026936;28;20241;-65
2023/12/11 11:03:23;;;;;;;1.70;1.60;;;10.00;72.60;;;;;;5025687;28;20235;-62
2023/12/11 11:05:50;;;;;;;1.30;1.30;;;10.30;73.60;;;;;;5024580;28;20265;-66
2023/12/11 11:08:17;;;;;;;2.00;1.90;;;10.30;72.20;;;;;;5024140;28;20733;-65
2023/12/11 11:10:44;;;;;;;2.13;2.00;;;10.10;72.50;;;;;;5024082;28;20209;-65
2023/12/11 11:13:10;;;;;;;1.80;1.70;;;10.10;72.90;;;;;;5025019;28;20279;-65
2023/12/11 11:15:37;;;;;;;1.70;1.60;;;10.10;72.90;;;;;;5031161;28;20370;-65
2023/12/11 11:18:04;;;;;;;1.90;1.80;;;10.00;72.10;;;;;;5029462;28;20577;-63
2023/12/11 11:20:31;;;;;;;1.60;1.50;;;10.00;72.60;;;;;;5027732;28;20704;-63
2023/12/11 11:22:57;;;;;;;1.90;1.80;;;10.00;72.50;;;;;;5023950;28;20266;-64
2023/12/11 11:25:24;;;;;;;1.70;1.60;;;10.00;71.90;;;;;;5024778;28;20283;-64
2023/12/11 11:27:50;;;;;;;1.83;1.73;;;10.00;71.60;;;;;;5029430;28;20223;-64
2023/12/11 11:30:17;;;;;;;1.43;1.37;;;10.10;71.70;;;;;;5026645;28;20744;-65
2023/12/11 11:32:43;;;;;;;1.40;1.37;;;10.00;70.30;;;;;;5028146;28;20293;-65
2023/12/11 11:35:10;;;;;;;1.50;1.50;;;10.00;70.40;;;;;;5027305;28;20635;-64
2023/12/11 11:37:36;;;;;;;1.17;1.17;;;9.90;71.20;;;;;;5029070;28;20208;-64
2023/12/11 11:40:03;;;;;;;1.27;1.20;;;9.90;70.80;;;;;;5014876;28;20220;-64
2023/12/11 11:42:29;;;;;;;1.70;1.60;;;10.00;70.30;;;;;;5020892;28;20213;-66
2023/12/11 11:44:57;;;;;;;1.40;1.40;;;10.10;69.80;;;;;;5030899;28;20232;-64
2023/12/11 11:47:23;;;;;;;1.47;1.37;;;10.10;68.80;;;;;;5030843;28;20652;-67
2023/12/11 11:49:50;;;;;;;1.40;1.30;;;10.20;68.80;;;;;;5027647;28;20239;-67
2023/12/11 11:52:16;;;;;;;1.47;1.37;;;10.10;67.60;;;;;;5027948;28;20670;-65
2023/12/11 11:54:43;;;;;;;1.90;1.80;;;10.00;68.30;;;;;;5030563;28;20197;-70
2023/12/11 11:57:10;;;;;;;1.50;1.40;;;9.90;69.10;;;;;;5027272;28;20208;-64
2023/12/11 11:59:36;;;;;;;1.67;1.50;;;9.80;68.80;;;;;;5023110;28;20208;-67
2023/12/11 12:02:03;;;;;;;1.60;1.50;;;9.90;69.10;;;;;;5030068;28;20631;-66
2023/12/11 12:04:29;;;;;;;1.70;1.20;;;9.90;68.00;;;;;;5030869;28;20202;-65
2023/12/11 12:06:56;;;;;;;1.33;1.30;;;9.90;68.00;;;;;;5032514;28;20289;-65
2023/12/11 12:09:22;;;;;;;1.50;1.40;;;9.90;68.00;;;;;;5014099;28;20314;-65
2023/12/11 12:11:49;;;;;;;1.50;1.40;;;9.90;68.90;;;;;;5029907;28;20235;-65
2023/12/11 12:14:15;;;;;;;1.53;1.43;;;9.90;68.50;;;;;;5033638;28;20236;-65
2023/12/11 12:16:42;;;;;;;1.40;1.30;;;9.90;68.00;;;;;;5031703;28;20233;-65
2023/12/11 12:19:08;;;;;;;2.13;1.93;;;9.80;67.90;;;;;;5014639;28;20208;-66
2023/12/11 12:21:35;;;;;;;1.20;1.20;;;9.80;67.40;;;;;;5032044;28;20232;-65
2023/12/11 12:24:03;;;;;;;1.30;1.30;;;9.80;67.40;;;;;;5034175;28;20214;-66
2023/12/11 12:26:29;;;;;;;2.10;1.43;;;9.80;67.50;;;;;;5023163;28;20264;-67
2023/12/11 12:28:56;;;;;;;1.10;1.10;;;9.70;67.10;;;;;;5024041;28;20744;-65
2023/12/11 12:31:22;;;;;;;1.60;1.50;;;9.70;66.50;;;;;;5030973;28;20685;-66
2023/12/11 12:33:49;;;;;;;1.40;1.30;;;9.60;66.70;;;;;;5031560;28;20249;-65
2023/12/11 12:36:16;;;;;;;1.60;1.50;;;9.60;67.20;;;;;;5036363;28;20237;-65
2023/12/11 12:38:42;;;;;;;1.30;1.30;;;9.60;66.40;;;;;;5047758;28;20206;-66
2023/12/11 12:41:09;;;;;;;1.50;1.40;;;9.60;66.10;;;;;;5044825;28;20239;-65
2023/12/11 12:43:35;;;;;;;1.47;1.30;;;9.60;66.50;;;;;;5041553;28;20694;-65
2023/12/11 12:46:02;;;;;;;1.33;1.33;;;9.60;65.90;;;;;;5042123;28;20231;-67
2023/12/11 12:48:28;;;;;;;1.30;1.30;;;9.70;65.10;;;;;;5045986;28;20233;-64
2023/12/11 12:50:55;;;;;;;1.30;1.30;;;9.80;65.00;;;;;;5042640;28;20680;-64